sensor_id;sensor_type;location;lat;lon;timestamp;P1;durP1;ratioP1;P2;durP2;ratioP2
13985;SDS011;7067;51.832;8.296;2022-09-17T00:00:48;3.42;;;1.80;;
13985;SDS011;7067;51.832;8.296;2022-09-17T00:03:14;5.45;;;2.03;;
13985;SDS011;7067;51.832;8.296;2022-09-17T00:05:40;6.30;;;1.42;;
13985;SDS011;7067;51.832;8.296;2022-09-17T00:08:06;8.82;;;2.22;;
13985;SDS011;7067;51.832;8.296;2022-09-17T00:10:37;8.10;;;2.05;;
13985;SDS011;7067;51.832;8.296;2022-09-17T00:13:05;6.20;;;1.80;;
13985;SDS011;7067;51.832;8.296;2022-09-17T00:15:30;11.25;;;2.30;;
13985;SDS011;7067;51.832;8.296;2022-09-17T00:17:56;5.90;;;1.90;;
13985;SDS011;7067;51.832;8.296;2022-09-17T00:20:23;10.25;;;2.53;;
13985;SDS011;7067;51.832;8.296;2022-09-17T00:22:49;8.88;;;2.25;;
13985;SDS011;7067;51.832;8.296;2022-09-17T00:25:14;7.80;;;1.70;;
13985;SDS011;7067;51.832;8.296;2022-09-17T00:27:40;7.07;;;1.42;;
13985;SDS011;7067;51.832;8.296;2022-09-17T00:30:06;11.32;;;1.67;;
13985;SDS011;7067;51.832;8.296;2022-09-17T00:32:32;10.80;;;2.10;;
13985;SDS011;7067;51.832;8.296;2022-09-17T00:34:57;7.18;;;1.90;;
13985;SDS011;7067;51.832;8.296;2022-09-17T00:37:22;7.40;;;2.20;;
13985;SDS011;7067;51.832;8.296;2022-09-17T00:39:48;4.35;;;1.50;;
13985;SDS011;7067;51.832;8.296;2022-09-17T00:42:14;8.25;;;2.47;;
13985;SDS011;7067;51.832;8.296;2022-09-17T00:49:50;11.98;;;2.13;;
13985;SDS011;7067;51.832;8.296;2022-09-17T00:52:19;8.20;;;1.83;;
13985;SDS011;7067;51.832;8.296;2022-09-17T00:54:51;8.15;;;2.05;;
13985;SDS011;7067;51.832;8.296;2022-09-17T00:57:21;8.27;;;2.10;;
13985;SDS011;7067;51.832;8.296;2022-09-17T00:59:47;18.20;;;3.63;;
13985;SDS011;7067;51.832;8.296;2022-09-17T01:02:12;12.15;;;1.75;;
13985;SDS011;7067;51.832;8.296;2022-09-17T01:04:38;8.88;;;2.28;;
13985;SDS011;7067;51.832;8.296;2022-09-17T01:09:55;12.82;;;2.03;;
13985;SDS011;7067;51.832;8.296;2022-09-17T01:12:30;6.72;;;1.30;;
13985;SDS011;7067;51.832;8.296;2022-09-17T01:20:28;8.80;;;1.90;;
13985;SDS011;7067;51.832;8.296;2022-09-17T01:25:57;13.52;;;2.55;;
13985;SDS011;7067;51.832;8.296;2022-09-17T01:28:35;12.05;;;2.10;;
13985;SDS011;7067;51.832;8.296;2022-09-17T01:31:29;8.70;;;1.77;;
13985;SDS011;7067;51.832;8.296;2022-09-17T01:34:29;11.93;;;1.90;;
13985;SDS011;7067;51.832;8.296;2022-09-17T01:37:29;8.85;;;2.35;;
13985;SDS011;7067;51.832;8.296;2022-09-17T01:47:46;9.38;;;1.63;;
13985;SDS011;7067;51.832;8.296;2022-09-17T01:50:24;8.95;;;1.98;;
13985;SDS011;7067;51.832;8.296;2022-09-17T01:52:53;10.20;;;2.53;;
13985;SDS011;7067;51.832;8.296;2022-09-17T01:55:19;11.48;;;1.67;;
13985;SDS011;7067;51.832;8.296;2022-09-17T01:57:50;12.38;;;1.75;;
13985;SDS011;7067;51.832;8.296;2022-09-17T02:00:17;9.38;;;1.83;;
13985;SDS011;7067;51.832;8.296;2022-09-17T02:02:55;6.80;;;1.55;;
13985;SDS011;7067;51.832;8.296;2022-09-17T02:08:08;9.10;;;2.00;;
13985;SDS011;7067;51.832;8.296;2022-09-17T02:10:37;12.60;;;2.33;;
13985;SDS011;7067;51.832;8.296;2022-09-17T02:13:09;10.82;;;1.90;;
13985;SDS011;7067;51.832;8.296;2022-09-17T02:15:39;9.07;;;2.15;;
13985;SDS011;7067;51.832;8.296;2022-09-17T02:18:18;10.20;;;1.90;;
13985;SDS011;7067;51.832;8.296;2022-09-17T02:21:13;10.90;;;1.55;;
13985;SDS011;7067;51.832;8.296;2022-09-17T02:24:15;9.90;;;1.67;;
13985;SDS011;7067;51.832;8.296;2022-09-17T02:26:43;11.20;;;2.50;;
13985;SDS011;7067;51.832;8.296;2022-09-17T02:31:45;12.57;;;2.30;;
13985;SDS011;7067;51.832;8.296;2022-09-17T02:34:11;9.02;;;2.47;;
13985;SDS011;7067;51.832;8.296;2022-09-17T02:36:36;9.18;;;1.90;;
13985;SDS011;7067;51.832;8.296;2022-09-17T02:39:02;14.25;;;2.88;;
13985;SDS011;7067;51.832;8.296;2022-09-17T02:41:32;9.65;;;1.90;;
13985;SDS011;7067;51.832;8.296;2022-09-17T02:47:04;13.32;;;2.50;;
13985;SDS011;7067;51.832;8.296;2022-09-17T02:57:59;9.40;;;2.30;;
13985;SDS011;7067;51.832;8.296;2022-09-17T03:00:33;12.75;;;2.03;;
13985;SDS011;7067;51.832;8.296;2022-09-17T03:03:05;14.88;;;3.20;;
13985;SDS011;7067;51.832;8.296;2022-09-17T03:05:33;11.65;;;2.60;;
13985;SDS011;7067;51.832;8.296;2022-09-17T03:08:00;14.15;;;2.30;;
13985;SDS011;7067;51.832;8.296;2022-09-17T03:10:26;9.43;;;1.85;;
13985;SDS011;7067;51.832;8.296;2022-09-17T03:12:57;7.15;;;1.90;;
13985;SDS011;7067;51.832;8.296;2022-09-17T03:15:22;10.07;;;1.63;;
13985;SDS011;7067;51.832;8.296;2022-09-17T03:17:47;13.48;;;2.03;;
13985;SDS011;7067;51.832;8.296;2022-09-17T03:20:13;16.75;;;2.55;;
13985;SDS011;7067;51.832;8.296;2022-09-17T03:22:40;9.80;;;2.70;;
13985;SDS011;7067;51.832;8.296;2022-09-17T03:25:05;18.38;;;2.67;;
13985;SDS011;7067;51.832;8.296;2022-09-17T03:27:31;13.57;;;2.30;;
13985;SDS011;7067;51.832;8.296;2022-09-17T03:29:56;17.35;;;2.88;;
13985;SDS011;7067;51.832;8.296;2022-09-17T03:32:22;16.00;;;2.40;;
13985;SDS011;7067;51.832;8.296;2022-09-17T03:34:47;18.35;;;2.15;;
13985;SDS011;7067;51.832;8.296;2022-09-17T03:37:13;19.75;;;2.78;;
13985;SDS011;7067;51.832;8.296;2022-09-17T03:39:38;20.48;;;2.50;;
13985;SDS011;7067;51.832;8.296;2022-09-17T03:42:03;10.13;;;2.30;;
13985;SDS011;7067;51.832;8.296;2022-09-17T03:44:29;16.92;;;3.03;;
13985;SDS011;7067;51.832;8.296;2022-09-17T03:46:54;16.25;;;2.33;;
13985;SDS011;7067;51.832;8.296;2022-09-17T03:49:20;8.82;;;2.00;;
13985;SDS011;7067;51.832;8.296;2022-09-17T03:51:47;9.73;;;2.17;;
13985;SDS011;7067;51.832;8.296;2022-09-17T03:54:13;14.32;;;2.28;;
13985;SDS011;7067;51.832;8.296;2022-09-17T03:56:38;23.60;;;3.03;;
13985;SDS011;7067;51.832;8.296;2022-09-17T03:59:03;15.75;;;2.63;;
13985;SDS011;7067;51.832;8.296;2022-09-17T04:01:29;12.25;;;1.77;;
13985;SDS011;7067;51.832;8.296;2022-09-17T04:03:54;14.68;;;2.40;;
13985;SDS011;7067;51.832;8.296;2022-09-17T04:06:20;15.45;;;2.50;;
13985;SDS011;7067;51.832;8.296;2022-09-17T04:08:45;16.85;;;3.42;;
13985;SDS011;7067;51.832;8.296;2022-09-17T04:11:10;11.45;;;2.38;;
13985;SDS011;7067;51.832;8.296;2022-09-17T04:13:36;15.07;;;2.53;;
13985;SDS011;7067;51.832;8.296;2022-09-17T04:16:01;16.65;;;3.03;;
13985;SDS011;7067;51.832;8.296;2022-09-17T04:18:27;15.98;;;2.38;;
13985;SDS011;7067;51.832;8.296;2022-09-17T04:20:53;12.75;;;2.90;;
13985;SDS011;7067;51.832;8.296;2022-09-17T04:23:18;15.35;;;2.40;;
13985;SDS011;7067;51.832;8.296;2022-09-17T04:25:44;13.07;;;2.15;;
13985;SDS011;7067;51.832;8.296;2022-09-17T04:28:09;22.88;;;3.22;;
13985;SDS011;7067;51.832;8.296;2022-09-17T04:30:34;10.73;;;3.03;;
13985;SDS011;7067;51.832;8.296;2022-09-17T04:33:00;12.85;;;2.70;;
13985;SDS011;7067;51.832;8.296;2022-09-17T04:35:25;12.88;;;2.30;;
13985;SDS011;7067;51.832;8.296;2022-09-17T04:37:51;11.98;;;1.85;;
13985;SDS011;7067;51.832;8.296;2022-09-17T04:40:19;14.02;;;2.28;;
13985;SDS011;7067;51.832;8.296;2022-09-17T04:42:45;19.33;;;2.58;;
13985;SDS011;7067;51.832;8.296;2022-09-17T04:45:11;14.77;;;2.33;;
13985;SDS011;7067;51.832;8.296;2022-09-17T04:47:39;24.38;;;3.95;;
13985;SDS011;7067;51.832;8.296;2022-09-17T04:50:05;14.77;;;2.35;;
13985;SDS011;7067;51.832;8.296;2022-09-17T04:52:30;14.48;;;2.70;;
13985;SDS011;7067;51.832;8.296;2022-09-17T04:54:56;12.10;;;2.75;;
13985;SDS011;7067;51.832;8.296;2022-09-17T04:57:21;10.05;;;2.30;;
13985;SDS011;7067;51.832;8.296;2022-09-17T04:59:49;17.42;;;2.38;;
13985;SDS011;7067;51.832;8.296;2022-09-17T05:02:14;19.67;;;2.58;;
13985;SDS011;7067;51.832;8.296;2022-09-17T05:04:40;12.05;;;2.25;;
13985;SDS011;7067;51.832;8.296;2022-09-17T05:07:05;27.73;;;2.92;;
13985;SDS011;7067;51.832;8.296;2022-09-17T05:09:30;13.48;;;1.75;;
13985;SDS011;7067;51.832;8.296;2022-09-17T05:11:56;10.60;;;2.17;;
13985;SDS011;7067;51.832;8.296;2022-09-17T05:14:21;17.75;;;2.58;;
13985;SDS011;7067;51.832;8.296;2022-09-17T05:16:46;18.52;;;2.03;;
13985;SDS011;7067;51.832;8.296;2022-09-17T05:19:12;10.88;;;1.77;;
13985;SDS011;7067;51.832;8.296;2022-09-17T05:21:37;12.88;;;1.95;;
13985;SDS011;7067;51.832;8.296;2022-09-17T05:24:02;10.48;;;2.50;;
13985;SDS011;7067;51.832;8.296;2022-09-17T05:26:28;13.25;;;1.90;;
13985;SDS011;7067;51.832;8.296;2022-09-17T05:28:53;10.40;;;2.22;;
13985;SDS011;7067;51.832;8.296;2022-09-17T05:31:19;17.58;;;2.53;;
13985;SDS011;7067;51.832;8.296;2022-09-17T05:33:44;17.30;;;2.10;;
13985;SDS011;7067;51.832;8.296;2022-09-17T05:36:09;8.15;;;1.52;;
13985;SDS011;7067;51.832;8.296;2022-09-17T05:38:35;12.27;;;1.92;;
13985;SDS011;7067;51.832;8.296;2022-09-17T05:41:03;10.07;;;2.08;;
13985;SDS011;7067;51.832;8.296;2022-09-17T05:45:59;12.70;;;2.38;;
13985;SDS011;7067;51.832;8.296;2022-09-17T05:48:28;13.23;;;2.00;;
13985;SDS011;7067;51.832;8.296;2022-09-17T05:50:54;9.07;;;1.80;;
13985;SDS011;7067;51.832;8.296;2022-09-17T05:53:19;9.40;;;2.13;;
13985;SDS011;7067;51.832;8.296;2022-09-17T05:55:45;15.68;;;2.40;;
13985;SDS011;7067;51.832;8.296;2022-09-17T05:58:14;9.07;;;2.10;;
13985;SDS011;7067;51.832;8.296;2022-09-17T06:00:43;12.70;;;2.65;;
13985;SDS011;7067;51.832;8.296;2022-09-17T06:03:12;11.60;;;1.95;;
13985;SDS011;7067;51.832;8.296;2022-09-17T06:05:39;11.27;;;1.55;;
13985;SDS011;7067;51.832;8.296;2022-09-17T06:08:04;8.25;;;1.90;;
13985;SDS011;7067;51.832;8.296;2022-09-17T06:10:30;11.98;;;2.05;;
13985;SDS011;7067;51.832;8.296;2022-09-17T06:12:56;20.25;;;1.95;;
13985;SDS011;7067;51.832;8.296;2022-09-17T06:15:22;17.83;;;1.83;;
13985;SDS011;7067;51.832;8.296;2022-09-17T06:17:47;11.77;;;1.73;;
13985;SDS011;7067;51.832;8.296;2022-09-17T06:20:13;14.98;;;2.25;;
13985;SDS011;7067;51.832;8.296;2022-09-17T06:22:39;11.40;;;1.60;;
13985;SDS011;7067;51.832;8.296;2022-09-17T06:25:05;20.52;;;2.55;;
13985;SDS011;7067;51.832;8.296;2022-09-17T06:27:31;12.82;;;2.03;;
13985;SDS011;7067;51.832;8.296;2022-09-17T06:29:57;13.88;;;1.60;;
13985;SDS011;7067;51.832;8.296;2022-09-17T06:32:22;11.88;;;2.55;;
13985;SDS011;7067;51.832;8.296;2022-09-17T06:34:48;12.32;;;1.48;;
13985;SDS011;7067;51.832;8.296;2022-09-17T06:37:13;12.30;;;2.10;;
13985;SDS011;7067;51.832;8.296;2022-09-17T06:39:39;11.68;;;1.77;;
13985;SDS011;7067;51.832;8.296;2022-09-17T06:42:04;14.82;;;2.80;;
13985;SDS011;7067;51.832;8.296;2022-09-17T06:44:30;11.35;;;2.17;;
13985;SDS011;7067;51.832;8.296;2022-09-17T06:46:55;6.05;;;1.73;;
13985;SDS011;7067;51.832;8.296;2022-09-17T06:49:20;9.43;;;1.88;;
13985;SDS011;7067;51.832;8.296;2022-09-17T06:51:46;7.93;;;1.52;;
13985;SDS011;7067;51.832;8.296;2022-09-17T06:54:11;18.70;;;2.25;;
13985;SDS011;7067;51.832;8.296;2022-09-17T06:56:37;11.65;;;2.22;;
13985;SDS011;7067;51.832;8.296;2022-09-17T06:59:02;8.68;;;1.70;;
13985;SDS011;7067;51.832;8.296;2022-09-17T07:01:27;16.25;;;1.77;;
13985;SDS011;7067;51.832;8.296;2022-09-17T07:03:53;14.90;;;2.33;;
13985;SDS011;7067;51.832;8.296;2022-09-17T07:06:18;6.20;;;1.60;;
13985;SDS011;7067;51.832;8.296;2022-09-17T07:08:44;13.43;;;1.80;;
13985;SDS011;7067;51.832;8.296;2022-09-17T07:11:11;10.88;;;1.65;;
13985;SDS011;7067;51.832;8.296;2022-09-17T07:13:36;8.45;;;1.30;;
13985;SDS011;7067;51.832;8.296;2022-09-17T07:16:02;12.63;;;2.00;;
13985;SDS011;7067;51.832;8.296;2022-09-17T07:18:29;8.38;;;1.50;;
13985;SDS011;7067;51.832;8.296;2022-09-17T07:20:55;10.27;;;1.55;;
13985;SDS011;7067;51.832;8.296;2022-09-17T07:23:22;14.80;;;1.73;;
13985;SDS011;7067;51.832;8.296;2022-09-17T07:25:52;11.82;;;2.22;;
13985;SDS011;7067;51.832;8.296;2022-09-17T07:28:25;10.85;;;1.85;;
13985;SDS011;7067;51.832;8.296;2022-09-17T07:30:51;8.95;;;1.40;;
13985;SDS011;7067;51.832;8.296;2022-09-17T07:33:17;13.48;;;1.45;;
13985;SDS011;7067;51.832;8.296;2022-09-17T07:35:54;11.45;;;1.70;;
13985;SDS011;7067;51.832;8.296;2022-09-17T07:38:21;12.55;;;2.30;;
13985;SDS011;7067;51.832;8.296;2022-09-17T07:43:21;9.98;;;2.33;;
13985;SDS011;7067;51.832;8.296;2022-09-17T07:45:47;10.55;;;1.70;;
13985;SDS011;7067;51.832;8.296;2022-09-17T07:48:12;10.13;;;1.75;;
13985;SDS011;7067;51.832;8.296;2022-09-17T07:50:38;8.27;;;1.33;;
13985;SDS011;7067;51.832;8.296;2022-09-17T07:53:03;12.07;;;1.52;;
13985;SDS011;7067;51.832;8.296;2022-09-17T07:55:28;10.32;;;1.63;;
13985;SDS011;7067;51.832;8.296;2022-09-17T07:57:54;12.23;;;1.40;;
13985;SDS011;7067;51.832;8.296;2022-09-17T08:00:19;6.30;;;1.77;;
13985;SDS011;7067;51.832;8.296;2022-09-17T08:02:45;9.48;;;1.83;;
13985;SDS011;7067;51.832;8.296;2022-09-17T08:05:10;10.43;;;1.35;;
13985;SDS011;7067;51.832;8.296;2022-09-17T08:07:35;11.15;;;1.60;;
13985;SDS011;7067;51.832;8.296;2022-09-17T08:10:01;8.45;;;1.25;;
13985;SDS011;7067;51.832;8.296;2022-09-17T08:12:26;11.40;;;2.25;;
13985;SDS011;7067;51.832;8.296;2022-09-17T08:14:51;11.48;;;2.78;;
13985;SDS011;7067;51.832;8.296;2022-09-17T08:17:17;9.23;;;1.77;;
13985;SDS011;7067;51.832;8.296;2022-09-17T08:19:42;9.30;;;1.10;;
13985;SDS011;7067;51.832;8.296;2022-09-17T08:22:07;12.55;;;1.33;;
13985;SDS011;7067;51.832;8.296;2022-09-17T08:24:33;11.05;;;2.03;;
13985;SDS011;7067;51.832;8.296;2022-09-17T08:26:58;8.55;;;1.92;;
13985;SDS011;7067;51.832;8.296;2022-09-17T08:29:23;11.52;;;1.55;;
13985;SDS011;7067;51.832;8.296;2022-09-17T08:31:49;8.02;;;1.35;;
13985;SDS011;7067;51.832;8.296;2022-09-17T08:34:14;10.35;;;1.77;;
13985;SDS011;7067;51.832;8.296;2022-09-17T08:36:39;8.38;;;1.42;;
13985;SDS011;7067;51.832;8.296;2022-09-17T08:39:05;7.60;;;1.35;;
13985;SDS011;7067;51.832;8.296;2022-09-17T08:41:39;6.97;;;1.23;;
13985;SDS011;7067;51.832;8.296;2022-09-17T08:44:25;9.82;;;1.45;;
13985;SDS011;7067;51.832;8.296;2022-09-17T08:47:07;11.02;;;1.45;;
13985;SDS011;7067;51.832;8.296;2022-09-17T08:49:46;11.30;;;1.80;;
13985;SDS011;7067;51.832;8.296;2022-09-17T09:03:55;13.73;;;2.33;;
13985;SDS011;7067;51.832;8.296;2022-09-17T09:06:25;8.18;;;1.52;;
13985;SDS011;7067;51.832;8.296;2022-09-17T09:08:56;4.22;;;1.45;;
13985;SDS011;7067;51.832;8.296;2022-09-17T09:11:26;6.07;;;1.42;;
13985;SDS011;7067;51.832;8.296;2022-09-17T09:14:06;7.43;;;1.15;;
13985;SDS011;7067;51.832;8.296;2022-09-17T09:16:38;7.40;;;1.20;;
13985;SDS011;7067;51.832;8.296;2022-09-17T09:19:27;7.32;;;1.10;;
13985;SDS011;7067;51.832;8.296;2022-09-17T09:22:01;6.97;;;1.83;;
13985;SDS011;7067;51.832;8.296;2022-09-17T09:24:32;9.13;;;1.60;;
13985;SDS011;7067;51.832;8.296;2022-09-17T09:29:41;8.20;;;1.85;;
13985;SDS011;7067;51.832;8.296;2022-09-17T09:34:49;6.57;;;1.13;;
13985;SDS011;7067;51.832;8.296;2022-09-17T09:37:16;6.57;;;1.10;;
13985;SDS011;7067;51.832;8.296;2022-09-17T09:39:46;4.65;;;0.95;;
13985;SDS011;7067;51.832;8.296;2022-09-17T09:42:15;9.93;;;1.92;;
13985;SDS011;7067;51.832;8.296;2022-09-17T09:44:48;4.10;;;1.00;;
13985;SDS011;7067;51.832;8.296;2022-09-17T09:47:22;5.88;;;1.65;;
13985;SDS011;7067;51.832;8.296;2022-09-17T09:50:17;3.88;;;0.60;;
13985;SDS011;7067;51.832;8.296;2022-09-17T09:56:00;5.68;;;0.88;;
13985;SDS011;7067;51.832;8.296;2022-09-17T09:58:35;8.38;;;1.92;;
13985;SDS011;7067;51.832;8.296;2022-09-17T10:01:06;8.55;;;1.30;;
13985;SDS011;7067;51.832;8.296;2022-09-17T10:03:39;6.90;;;1.10;;
13985;SDS011;7067;51.832;8.296;2022-09-17T10:06:09;9.65;;;1.85;;
13985;SDS011;7067;51.832;8.296;2022-09-17T10:08:38;5.88;;;1.00;;
13985;SDS011;7067;51.832;8.296;2022-09-17T10:11:06;5.85;;;0.82;;
13985;SDS011;7067;51.832;8.296;2022-09-17T10:13:44;7.53;;;1.25;;
13985;SDS011;7067;51.832;8.296;2022-09-17T10:16:20;6.13;;;1.52;;
13985;SDS011;7067;51.832;8.296;2022-09-17T10:18:49;2.90;;;1.00;;
13985;SDS011;7067;51.832;8.296;2022-09-17T10:21:20;8.18;;;1.00;;
13985;SDS011;7067;51.832;8.296;2022-09-17T10:23:47;5.05;;;1.15;;
13985;SDS011;7067;51.832;8.296;2022-09-17T10:26:26;11.27;;;1.30;;
13985;SDS011;7067;51.832;8.296;2022-09-17T10:28:54;7.20;;;0.82;;
13985;SDS011;7067;51.832;8.296;2022-09-17T10:31:21;4.45;;;1.00;;
13985;SDS011;7067;51.832;8.296;2022-09-17T10:33:56;2.78;;;0.80;;
13985;SDS011;7067;51.832;8.296;2022-09-17T10:36:56;8.10;;;1.20;;
13985;SDS011;7067;51.832;8.296;2022-09-17T10:39:31;5.60;;;0.80;;
13985;SDS011;7067;51.832;8.296;2022-09-17T10:42:04;5.07;;;0.95;;
13985;SDS011;7067;51.832;8.296;2022-09-17T10:44:50;4.65;;;0.73;;
13985;SDS011;7067;51.832;8.296;2022-09-17T10:47:26;5.25;;;1.20;;
13985;SDS011;7067;51.832;8.296;2022-09-17T10:49:58;3.15;;;0.60;;
13985;SDS011;7067;51.832;8.296;2022-09-17T10:55:11;3.33;;;0.98;;
13985;SDS011;7067;51.832;8.296;2022-09-17T11:00:19;5.57;;;1.02;;
13985;SDS011;7067;51.832;8.296;2022-09-17T11:09:01;3.67;;;0.90;;
13985;SDS011;7067;51.832;8.296;2022-09-17T11:19:42;3.20;;;0.75;;
13985;SDS011;7067;51.832;8.296;2022-09-17T11:28:09;2.22;;;0.95;;
13985;SDS011;7067;51.832;8.296;2022-09-17T11:33:37;2.72;;;0.32;;
13985;SDS011;7067;51.832;8.296;2022-09-17T11:36:14;6.13;;;0.68;;
13985;SDS011;7067;51.832;8.296;2022-09-17T11:38:44;4.03;;;0.55;;
13985;SDS011;7067;51.832;8.296;2022-09-17T11:41:22;2.35;;;0.35;;
13985;SDS011;7067;51.832;8.296;2022-09-17T11:46:48;2.78;;;0.30;;
13985;SDS011;7067;51.832;8.296;2022-09-17T11:49:46;2.35;;;0.65;;
13985;SDS011;7067;51.832;8.296;2022-09-17T11:52:31;4.80;;;0.68;;
13985;SDS011;7067;51.832;8.296;2022-09-17T11:57:48;4.22;;;0.50;;
13985;SDS011;7067;51.832;8.296;2022-09-17T12:00:19;2.00;;;0.73;;
13985;SDS011;7067;51.832;8.296;2022-09-17T12:05:17;4.65;;;0.80;;
13985;SDS011;7067;51.832;8.296;2022-09-17T12:13:01;1.17;;;0.40;;
13985;SDS011;7067;51.832;8.296;2022-09-17T12:15:28;0.47;;;0.40;;
13985;SDS011;7067;51.832;8.296;2022-09-17T12:17:58;1.67;;;0.43;;
13985;SDS011;7067;51.832;8.296;2022-09-17T12:20:49;1.60;;;0.45;;
13985;SDS011;7067;51.832;8.296;2022-09-17T12:23:30;0.70;;;0.30;;
13985;SDS011;7067;51.832;8.296;2022-09-17T12:28:34;1.42;;;0.45;;
13985;SDS011;7067;51.832;8.296;2022-09-17T12:31:18;3.40;;;0.85;;
13985;SDS011;7067;51.832;8.296;2022-09-17T12:33:50;1.90;;;0.40;;
13985;SDS011;7067;51.832;8.296;2022-09-17T12:36:32;2.20;;;0.40;;
13985;SDS011;7067;51.832;8.296;2022-09-17T12:47:31;2.00;;;0.50;;
13985;SDS011;7067;51.832;8.296;2022-09-17T12:50:16;3.40;;;0.65;;
13985;SDS011;7067;51.832;8.296;2022-09-17T13:07:02;2.40;;;0.40;;
13985;SDS011;7067;51.832;8.296;2022-09-17T13:20:33;1.08;;;0.40;;
13985;SDS011;7067;51.832;8.296;2022-09-17T13:23:04;1.85;;;0.32;;
13985;SDS011;7067;51.832;8.296;2022-09-17T13:25:29;2.55;;;0.30;;
13985;SDS011;7067;51.832;8.296;2022-09-17T13:28:08;2.03;;;0.50;;
13985;SDS011;7067;51.832;8.296;2022-09-17T13:30:54;2.67;;;0.43;;
13985;SDS011;7067;51.832;8.296;2022-09-17T13:33:54;3.20;;;0.45;;
13985;SDS011;7067;51.832;8.296;2022-09-17T13:38:58;3.63;;;0.30;;
13985;SDS011;7067;51.832;8.296;2022-09-17T13:41:25;1.75;;;0.30;;
13985;SDS011;7067;51.832;8.296;2022-09-17T13:43:52;2.67;;;0.40;;
13985;SDS011;7067;51.832;8.296;2022-09-17T13:46:23;2.28;;;0.70;;
13985;SDS011;7067;51.832;8.296;2022-09-17T13:48:51;2.20;;;0.28;;
13985;SDS011;7067;51.832;8.296;2022-09-17T13:51:41;1.77;;;0.57;;
13985;SDS011;7067;51.832;8.296;2022-09-17T13:54:07;3.50;;;0.75;;
13985;SDS011;7067;51.832;8.296;2022-09-17T13:56:45;3.53;;;0.63;;
13985;SDS011;7067;51.832;8.296;2022-09-17T13:59:14;5.40;;;0.98;;
13985;SDS011;7067;51.832;8.296;2022-09-17T14:02:00;5.43;;;0.90;;
13985;SDS011;7067;51.832;8.296;2022-09-17T14:09:56;3.60;;;0.65;;
13985;SDS011;7067;51.832;8.296;2022-09-17T14:21:03;7.72;;;0.80;;
13985;SDS011;7067;51.832;8.296;2022-09-17T14:23:31;3.78;;;0.50;;
13985;SDS011;7067;51.832;8.296;2022-09-17T14:25:58;3.97;;;0.60;;
13985;SDS011;7067;51.832;8.296;2022-09-17T14:28:29;5.20;;;0.70;;
13985;SDS011;7067;51.832;8.296;2022-09-17T14:30:56;4.38;;;0.40;;
13985;SDS011;7067;51.832;8.296;2022-09-17T14:33:24;3.70;;;0.82;;
13985;SDS011;7067;51.832;8.296;2022-09-17T14:35:53;5.15;;;0.70;;
13985;SDS011;7067;51.832;8.296;2022-09-17T14:38:22;2.67;;;0.60;;
13985;SDS011;7067;51.832;8.296;2022-09-17T14:40:52;4.13;;;0.90;;
13985;SDS011;7067;51.832;8.296;2022-09-17T14:43:39;5.47;;;1.05;;
13985;SDS011;7067;51.832;8.296;2022-09-17T14:46:22;7.18;;;0.70;;
13985;SDS011;7067;51.832;8.296;2022-09-17T14:48:49;2.45;;;0.60;;
13985;SDS011;7067;51.832;8.296;2022-09-17T14:53:46;5.20;;;0.57;;
13985;SDS011;7067;51.832;8.296;2022-09-17T14:58:39;5.10;;;0.98;;
13985;SDS011;7067;51.832;8.296;2022-09-17T15:01:12;2.35;;;0.68;;
13985;SDS011;7067;51.832;8.296;2022-09-17T15:03:46;6.70;;;1.00;;
13985;SDS011;7067;51.832;8.296;2022-09-17T15:06:19;4.38;;;0.70;;
13985;SDS011;7067;51.832;8.296;2022-09-17T15:08:47;4.53;;;0.90;;
13985;SDS011;7067;51.832;8.296;2022-09-17T15:11:13;6.88;;;1.25;;
13985;SDS011;7067;51.832;8.296;2022-09-17T15:16:15;3.20;;;1.15;;
13985;SDS011;7067;51.832;8.296;2022-09-17T15:18:52;2.97;;;0.50;;
13985;SDS011;7067;51.832;8.296;2022-09-17T15:24:09;6.57;;;0.70;;
13985;SDS011;7067;51.832;8.296;2022-09-17T15:26:42;3.30;;;0.90;;
13985;SDS011;7067;51.832;8.296;2022-09-17T15:29:12;2.05;;;0.68;;
13985;SDS011;7067;51.832;8.296;2022-09-17T15:31:38;9.47;;;1.37;;
13985;SDS011;7067;51.832;8.296;2022-09-17T15:34:03;5.07;;;0.70;;
13985;SDS011;7067;51.832;8.296;2022-09-17T15:36:29;3.65;;;1.08;;
13985;SDS011;7067;51.832;8.296;2022-09-17T15:38:55;4.90;;;0.60;;
13985;SDS011;7067;51.832;8.296;2022-09-17T15:44:04;4.97;;;1.13;;
13985;SDS011;7067;51.832;8.296;2022-09-17T15:46:31;3.88;;;0.60;;
13985;SDS011;7067;51.832;8.296;2022-09-17T15:48:57;4.68;;;0.68;;
13985;SDS011;7067;51.832;8.296;2022-09-17T15:51:28;1.27;;;0.28;;
13985;SDS011;7067;51.832;8.296;2022-09-17T15:53:56;1.65;;;0.50;;
13985;SDS011;7067;51.832;8.296;2022-09-17T15:56:27;2.67;;;0.60;;
13985;SDS011;7067;51.832;8.296;2022-09-17T15:58:57;3.17;;;0.70;;
13985;SDS011;7067;51.832;8.296;2022-09-17T16:06:56;4.90;;;1.05;;
13985;SDS011;7067;51.832;8.296;2022-09-17T16:12:07;3.60;;;1.33;;
13985;SDS011;7067;51.832;8.296;2022-09-17T16:14:36;5.43;;;1.83;;
13985;SDS011;7067;51.832;8.296;2022-09-17T16:17:08;11.73;;;5.20;;
13985;SDS011;7067;51.832;8.296;2022-09-17T16:19:56;20.05;;;7.68;;
13985;SDS011;7067;51.832;8.296;2022-09-17T16:22:23;12.45;;;4.28;;
13985;SDS011;7067;51.832;8.296;2022-09-17T16:24:50;6.78;;;1.42;;
13985;SDS011;7067;51.832;8.296;2022-09-17T16:27:20;7.45;;;2.95;;
13985;SDS011;7067;51.832;8.296;2022-09-17T16:29:48;7.25;;;1.75;;
13985;SDS011;7067;51.832;8.296;2022-09-17T16:32:13;5.07;;;1.50;;
13985;SDS011;7067;51.832;8.296;2022-09-17T16:34:38;6.25;;;1.55;;
13985;SDS011;7067;51.832;8.296;2022-09-17T16:37:04;8.82;;;1.40;;
13985;SDS011;7067;51.832;8.296;2022-09-17T16:39:29;11.85;;;1.48;;
13985;SDS011;7067;51.832;8.296;2022-09-17T16:41:54;6.95;;;1.48;;
13985;SDS011;7067;51.832;8.296;2022-09-17T16:44:20;5.45;;;1.60;;
13985;SDS011;7067;51.832;8.296;2022-09-17T16:46:45;8.20;;;1.50;;
13985;SDS011;7067;51.832;8.296;2022-09-17T16:49:12;7.35;;;1.88;;
13985;SDS011;7067;51.832;8.296;2022-09-17T16:51:38;7.63;;;1.33;;
13985;SDS011;7067;51.832;8.296;2022-09-17T16:54:03;9.30;;;1.60;;
13985;SDS011;7067;51.832;8.296;2022-09-17T16:56:29;7.25;;;1.30;;
13985;SDS011;7067;51.832;8.296;2022-09-17T16:58:54;6.50;;;1.00;;
13985;SDS011;7067;51.832;8.296;2022-09-17T17:01:20;12.00;;;1.92;;
13985;SDS011;7067;51.832;8.296;2022-09-17T17:03:48;7.05;;;1.67;;
13985;SDS011;7067;51.832;8.296;2022-09-17T17:06:15;4.05;;;1.15;;
13985;SDS011;7067;51.832;8.296;2022-09-17T17:08:41;4.53;;;0.75;;
13985;SDS011;7067;51.832;8.296;2022-09-17T17:11:06;5.00;;;0.80;;
13985;SDS011;7067;51.832;8.296;2022-09-17T17:13:31;4.63;;;1.17;;
13985;SDS011;7067;51.832;8.296;2022-09-17T17:15:57;4.75;;;0.90;;
13985;SDS011;7067;51.832;8.296;2022-09-17T17:18:22;6.75;;;1.00;;
13985;SDS011;7067;51.832;8.296;2022-09-17T17:20:48;7.18;;;0.90;;
13985;SDS011;7067;51.832;8.296;2022-09-17T17:23:14;7.70;;;1.27;;
13985;SDS011;7067;51.832;8.296;2022-09-17T17:25:40;3.72;;;1.30;;
13985;SDS011;7067;51.832;8.296;2022-09-17T17:28:05;4.65;;;0.85;;
13985;SDS011;7067;51.832;8.296;2022-09-17T17:30:30;9.45;;;1.35;;
13985;SDS011;7067;51.832;8.296;2022-09-17T17:32:56;8.55;;;1.42;;
13985;SDS011;7067;51.832;8.296;2022-09-17T17:35:24;5.00;;;0.85;;
13985;SDS011;7067;51.832;8.296;2022-09-17T17:37:49;9.13;;;2.25;;
13985;SDS011;7067;51.832;8.296;2022-09-17T17:40:15;11.10;;;1.65;;
13985;SDS011;7067;51.832;8.296;2022-09-17T17:42:40;7.22;;;1.33;;
13985;SDS011;7067;51.832;8.296;2022-09-17T17:45:08;3.33;;;0.65;;
13985;SDS011;7067;51.832;8.296;2022-09-17T17:47:34;6.90;;;1.90;;
13985;SDS011;7067;51.832;8.296;2022-09-17T17:49:59;7.00;;;1.25;;
13985;SDS011;7067;51.832;8.296;2022-09-17T17:52:24;5.57;;;1.40;;
13985;SDS011;7067;51.832;8.296;2022-09-17T17:54:50;6.25;;;0.90;;
13985;SDS011;7067;51.832;8.296;2022-09-17T17:57:15;14.80;;;1.92;;
13985;SDS011;7067;51.832;8.296;2022-09-17T17:59:40;4.57;;;1.02;;
13985;SDS011;7067;51.832;8.296;2022-09-17T18:02:06;5.50;;;1.20;;
13985;SDS011;7067;51.832;8.296;2022-09-17T18:04:31;11.80;;;1.20;;
13985;SDS011;7067;51.832;8.296;2022-09-17T18:06:57;8.18;;;1.13;;
13985;SDS011;7067;51.832;8.296;2022-09-17T18:09:22;3.30;;;0.70;;